WetterOnline ( https://www.wetteronline.de )

Wetter aktuell Osnabrück

Aktuelles Wetter: Belm (103m)

6-stündlich | Neueste Meldungen
Ortszeit Temperatur Wetter
Mo, 18.11. 19:00 4.7° C leichter Regen
Mo, 18.11. 13:00 5.2° C bewölkt
Mo, 18.11. 7:00 4.6° C bedeckt
Mo, 18.11. 1:00 4.4° C Sprühregen
So, 17.11. 19:00 3.5° C leichter Regen
So, 17.11. 13:00 3.6° C bedeckt
So, 17.11. 7:00 1.1° C wolkenlos
So, 17.11. 1:00 2.8° C wolkenlos
Ortszeit Temperatur Wetter
Mo, 18.11. 20:30 4.1° C Sprühregen
Mo, 18.11. 20:20 4.1° C Sprühregen
Mo, 18.11. 20:10 4.1° C Sprühregen
Mo, 18.11. 20:00 4.2° C leichter Regen
Mo, 18.11. 19:50 4.2° C leichter Regen
Mo, 18.11. 19:40 4.3° C leichter Regen
Mo, 18.11. 19:30 4.4° C leichter Regen
Mo, 18.11. 19:00 4.7° C leichter Regen
Ortszeit Relative Feuchte Sichtweite
Mo, 18.11. 19:00 96% 4.8 km
Mo, 18.11. 13:00 99% 2.1 km
Mo, 18.11. 7:00 99% 1.6 km
Mo, 18.11. 1:00 98% 1.5 km
So, 17.11. 19:00 92% 3.2 km
So, 17.11. 13:00 86% 6 km
So, 17.11. 7:00 93% 3.7 km
So, 17.11. 1:00 83% 23 km
Ortszeit Relative Feuchte Sichtweite
Mo, 18.11. 20:30 96% 7 km
Mo, 18.11. 20:20 96% -
Mo, 18.11. 20:10 96% -
Mo, 18.11. 20:00 96% 7 km
Mo, 18.11. 19:50 96% -
Mo, 18.11. 19:40 95% -
Mo, 18.11. 19:30 97% 4.4 km
Mo, 18.11. 19:00 96% 4.8 km
Ortszeit Niederschlagsmenge Niederschlagsart
Mo, 18.11. 19:00 9 l/m2 in 12 Std. Regen
Mo, 18.11. 13:00 0.1 l/m2 in 6 Std. Sprühregen
Mo, 18.11. 7:00 11 l/m2 in 12 Std. Regen
Mo, 18.11. 1:00 8 l/m2 in 6 Std. Regen
So, 17.11. 19:00 0.5 l/m2 in 12 Std. Regen
So, 17.11. 13:00 0.0 l/m2 in 6 Std. -
So, 17.11. 7:00 0.0 l/m2 in 12 Std. -
So, 17.11. 1:00 0.0 l/m2 in 6 Std. -
Ortszeit Niederschlagsmenge Niederschlagsart
Mo, 18.11. 20:30 0.1 l/m2 in 1 Std. -
Mo, 18.11. 20:20 keine Meldung -
Mo, 18.11. 20:10 keine Meldung -
Mo, 18.11. 20:00 1.7 l/m2 in 1 Std. Regen
Mo, 18.11. 19:50 keine Meldung -
Mo, 18.11. 19:40 keine Meldung -
Mo, 18.11. 19:30 1.1 l/m2 in 1 Std. -
Mo, 18.11. 19:00 2.4 l/m2 in 1 Std. Regen
Ortszeit Stärke Spitze Richtung
km/h Bft. km/h Grad Sektor
Mo, 18.11. 19:00 19 3 31 190° S
Mo, 18.11. 13:00 9 2 17 210° SW
Mo, 18.11. 7:00 7 2 25 310° NW
Mo, 18.11. 1:00 14 3 36 20° N
So, 17.11. 19:00 11 2 22 20° N
So, 17.11. 13:00 4 1 22 80° O
So, 17.11. 7:00 14 3 22 130° SO
So, 17.11. 1:00 7 2 25 160° S
Ortszeit Stärke Spitze Richtung
km/h Bft. km/h Grad Sektor
Mo, 18.11. 20:30 13 3 28 190° S
Mo, 18.11. 20:20 13 3 - 190° S
Mo, 18.11. 20:10 14 3 - 200° S
Mo, 18.11. 20:00 15 3 26 200° S
Mo, 18.11. 19:50 15 3 - 200° S
Mo, 18.11. 19:40 14 3 - 190° S
Mo, 18.11. 19:30 14 3 25 200° S
Mo, 18.11. 19:00 19 3 31 190° S
Ortszeit Untergrenze Bedeckung Gattung
total tief tief mittel hoch
Mo, 18.11. 19:00 30 m 7/8 7/8 - - -
Mo, 18.11. 13:00 60 m 7/8 7/8 - - -
Mo, 18.11. 7:00 60 m 8/8 8/8 - - -
Mo, 18.11. 1:00 90 m 8/8 8/8 - - -
So, 17.11. 19:00 1500 m 7/8 7/8 - - -
So, 17.11. 13:00 3900 m 8/8 8/8 - - -
So, 17.11. 7:00 7800 m 0/8 0/8 - - -
So, 17.11. 1:00 - 0/8 0/8 - - -
Ortszeit Bedeckungsgrad in Achtel und Wolkenuntergrenze
Mo, 18.11. 20:30 7(180m)
Mo, 18.11. 20:20 7(180m)
Mo, 18.11. 20:10 7(180m)
Mo, 18.11. 20:00 8(180m)
Mo, 18.11. 19:50 8(180m)
Mo, 18.11. 19:40 8(180m)
Mo, 18.11. 19:30 7(180m)
Mo, 18.11. 19:00 1(30m) 7(210m) 7(720m)
Ortszeit Luftdruck NN (hPa) Tendenz (hPa in 3 Std.)
Mo, 18.11. 19:00 1005 - 0,1
Mo, 18.11. 13:00 1005 - 0,4
Mo, 18.11. 7:00 1005 + 0,4
Mo, 18.11. 1:00 1006 - 1,8
So, 17.11. 19:00 1010 - 1,2
So, 17.11. 13:00 1013 - 1,2
So, 17.11. 7:00 1014 + 0,4
So, 17.11. 1:00 1013 + 0,8
Ortszeit Luftdruck NN (hPa) Tendenz (hPa in 3 Std.)
Mo, 18.11. 20:30 1005 - 0,2
Mo, 18.11. 20:20 1005 keine Meldung
Mo, 18.11. 20:10 1005 keine Meldung
Mo, 18.11. 20:00 1005 0,0
Mo, 18.11. 19:50 1005 keine Meldung
Mo, 18.11. 19:40 1005 keine Meldung
Mo, 18.11. 19:30 1005 + 0,1
Mo, 18.11. 19:00 1005 - 0,1
Ortszeit Schneehöhe (cm)
Mo, 18.11. 19:00 0
Mo, 18.11. 13:00 0
Mo, 18.11. 7:00 0
Mo, 18.11. 1:00 0
So, 17.11. 19:00 0
So, 17.11. 13:00 0
So, 17.11. 7:00 0
So, 17.11. 1:00 0
Ortszeit Schneehöhe (cm)
Mo, 18.11. 20:30 0
Mo, 18.11. 20:20 0
Mo, 18.11. 20:10 0
Mo, 18.11. 20:00 0
Mo, 18.11. 19:50 0
Mo, 18.11. 19:40 0
Mo, 18.11. 19:30 0
Mo, 18.11. 19:00 0
Link zu dieser Seite / Seite empfehlen

Das Wetter in ...